Time;durP1;ratioP1;P1;durP2;ratioP2;P2;SDS_P1;SDS_P2;PMS_P1;PMS_P2;Temp;Humidity;BMP_temperature;BMP_pressure;BME280_temperature;BME280_humidity;BME280_pressure;Samples;Min_cycle;Max_cycle;Signal;HPM_P1;HPM_P2
2021/05/31 00:01:42;;;;;;;3.03;2.10;;;16.20;99.90;;;;;;5069997;28;20033;-87
2021/05/31 00:04:07;;;;;;;2.20;2.00;;;16.00;99.90;;;;;;5051736;28;20033;-87
2021/05/31 00:06:41;;;;;;;2.67;2.10;;;16.00;99.90;;;;;;5071821;28;20024;-87
2021/05/31 00:09:08;;;;;;;3.25;1.95;;;15.90;99.90;;;;;;5049377;28;20039;-87
2021/05/31 00:11:34;;;;;;;2.85;2.05;;;16.00;99.90;;;;;;5069575;28;20032;-87
2021/05/31 00:14:00;;;;;;;3.83;2.00;;;16.00;99.90;;;;;;5069373;28;20082;-87
2021/05/31 00:16:25;;;;;;;2.20;2.00;;;16.00;99.90;;;;;;5052791;28;20393;-87
2021/05/31 00:18:51;;;;;;;2.65;1.98;;;16.10;99.90;;;;;;5071386;28;20542;-87
2021/05/31 00:21:18;;;;;;;3.05;2.45;;;16.00;99.90;;;;;;5051347;28;20032;-87
2021/05/31 00:23:45;;;;;;;2.28;2.08;;;16.00;99.90;;;;;;5055290;28;20024;-86
2021/05/31 00:26:10;;;;;;;3.60;2.08;;;16.10;99.90;;;;;;5073629;28;20442;-87
2021/05/31 00:28:36;;;;;;;3.15;2.40;;;16.10;99.90;;;;;;5073742;28;20099;-87
2021/05/31 00:31:02;;;;;;;2.15;2.05;;;16.10;99.90;;;;;;5056133;28;20029;-87
2021/05/31 00:33:27;;;;;;;3.95;2.10;;;16.00;99.90;;;;;;5074387;28;20075;-87
2021/05/31 00:35:53;;;;;;;3.60;2.10;;;16.00;99.90;;;;;;5073751;28;20032;-87
2021/05/31 00:38:19;;;;;;;3.50;2.40;;;15.90;99.90;;;;;;5057024;28;20538;-87
2021/05/31 00:40:44;;;;;;;4.85;2.20;;;15.80;99.90;;;;;;5073775;28;20028;-87
2021/05/31 00:43:10;;;;;;;4.18;2.28;;;15.90;99.90;;;;;;5073033;28;20104;-87
2021/05/31 00:45:35;;;;;;;2.10;1.98;;;15.80;99.90;;;;;;5075024;28;20020;-87
2021/05/31 00:48:01;;;;;;;2.95;2.05;;;15.70;99.90;;;;;;5073264;28;20425;-87
2021/05/31 00:50:27;;;;;;;3.10;2.58;;;15.60;99.90;;;;;;5054733;28;20433;-87
2021/05/31 00:52:53;;;;;;;3.35;2.30;;;15.60;99.90;;;;;;5073223;28;20029;-86
2021/05/31 00:55:18;;;;;;;2.88;2.03;;;15.60;99.90;;;;;;5071852;28;20056;-87
2021/05/31 00:57:44;;;;;;;5.00;2.20;;;15.60;99.90;;;;;;5074058;28;20108;-87
2021/05/31 01:00:10;;;;;;;2.45;2.25;;;15.60;99.90;;;;;;5053261;28;20480;-87
2021/05/31 01:02:37;;;;;;;3.88;2.30;;;15.60;99.90;;;;;;5071997;28;20025;-87
2021/05/31 01:05:04;;;;;;;2.70;2.38;;;15.70;99.90;;;;;;5056372;28;20033;-87
2021/05/31 01:07:49;;;;;;;2.97;2.20;;;15.70;99.90;;;;;;5072901;28;20029;-87
2021/05/31 01:10:36;;;;;;;5.07;2.13;;;15.70;99.90;;;;;;5073362;28;20067;-87
2021/05/31 01:13:31;;;;;;;3.85;2.50;;;15.80;99.90;;;;;;5069626;28;20123;-87
2021/05/31 01:16:07;;;;;;;2.38;2.17;;;15.80;99.90;;;;;;5053231;28;20106;-87
2021/05/31 01:18:42;;;;;;;2.30;2.10;;;15.60;99.90;;;;;;5071052;28;20108;-87
2021/05/31 01:21:31;;;;;;;2.42;2.00;;;15.80;99.90;;;;;;5048617;28;20450;-87
2021/05/31 01:24:08;;;;;;;3.10;2.17;;;15.40;99.90;;;;;;5062641;28;20032;-87
2021/05/31 01:26:59;;;;;;;2.22;1.90;;;15.20;99.90;;;;;;5055303;28;20027;-87
2021/05/31 01:29:26;;;;;;;2.03;1.83;;;15.10;99.90;;;;;;5072371;28;20523;-87
2021/05/31 01:32:03;;;;;;;4.32;2.30;;;15.20;99.90;;;;;;5072242;28;20044;-87
2021/05/31 01:34:31;;;;;;;2.35;2.15;;;15.20;99.90;;;;;;5056037;28;20569;-87
2021/05/31 01:37:14;;;;;;;2.85;2.20;;;15.30;99.90;;;;;;5056119;28;20384;-86
2021/05/31 01:39:44;;;;;;;2.60;2.28;;;14.90;99.90;;;;;;5055464;28;20016;-87
2021/05/31 01:42:10;;;;;;;2.75;2.55;;;14.80;99.90;;;;;;5071739;28;20051;-87
2021/05/31 01:44:38;;;;;;;2.90;2.22;;;14.90;99.90;;;;;;5072343;28;20030;-87
2021/05/31 01:47:04;;;;;;;3.40;2.60;;;14.90;99.90;;;;;;5072267;28;20037;-86
2021/05/31 01:49:30;;;;;;;2.83;2.17;;;14.90;99.90;;;;;;5055998;28;20393;-87
2021/05/31 01:51:57;;;;;;;2.88;2.67;;;14.90;99.90;;;;;;5073945;28;20416;-87
2021/05/31 01:54:23;;;;;;;3.90;2.80;;;15.00;99.90;;;;;;5054510;28;20481;-87
2021/05/31 01:56:50;;;;;;;4.13;2.65;;;15.00;99.90;;;;;;5054817;28;20409;-87
2021/05/31 01:59:18;;;;;;;4.28;2.50;;;14.90;99.90;;;;;;5055471;28;20048;-87
2021/05/31 02:01:46;;;;;;;3.40;2.83;;;14.90;99.90;;;;;;5072321;28;20505;-87
2021/05/31 02:04:12;;;;;;;3.58;2.80;;;15.10;99.90;;;;;;5072024;28;24796;-87
2021/05/31 02:06:38;;;;;;;3.55;2.65;;;14.60;99.90;;;;;;5055634;28;20028;-87
2021/05/31 02:09:05;;;;;;;5.32;2.53;;;14.70;99.90;;;;;;5053915;28;20122;-87
2021/05/31 02:11:43;;;;;;;3.50;2.47;;;14.50;99.90;;;;;;5071435;28;20024;-87
2021/05/31 02:14:35;;;;;;;2.85;2.40;;;14.50;99.90;;;;;;5070286;28;20094;-86
2021/05/31 02:17:31;;;;;;;5.55;2.90;;;14.60;99.90;;;;;;5070333;28;20082;-87
2021/05/31 02:20:02;;;;;;;2.70;2.38;;;14.70;99.90;;;;;;5070383;28;20024;-87
2021/05/31 02:22:30;;;;;;;3.35;2.50;;;14.50;99.90;;;;;;5072014;28;20575;-87
2021/05/31 02:24:57;;;;;;;3.35;2.58;;;14.70;99.90;;;;;;5055061;28;20095;-87
2021/05/31 02:27:23;;;;;;;3.65;2.50;;;14.30;1.00;;;;;;5071840;28;20063;-87
2021/05/31 02:29:49;;;;;;;2.90;2.55;;;14.50;99.90;;;;;;5071190;28;20032;-87
2021/05/31 02:32:15;;;;;;;6.43;2.95;;;14.40;99.90;;;;;;5078242;28;20052;-87
2021/05/31 02:34:40;;;;;;;2.85;2.63;;;14.50;99.90;;;;;;5091480;28;20051;-87
2021/05/31 02:37:08;;;;;;;2.75;2.50;;;14.60;99.90;;;;;;5073882;28;20115;-87
2021/05/31 02:39:35;;;;;;;3.05;2.60;;;14.20;99.90;;;;;;5072822;28;20020;-87
2021/05/31 02:42:00;;;;;;;3.72;3.00;;;14.10;99.90;;;;;;5091252;28;20078;-87
2021/05/31 02:44:26;;;;;;;3.50;2.60;;;14.20;99.90;;;;;;5074212;28;20024;-87
2021/05/31 02:46:52;;;;;;;2.90;2.70;;;14.20;99.90;;;;;;5070919;28;20031;-87
2021/05/31 02:49:17;;;;;;;3.38;2.67;;;14.10;99.90;;;;;;5073067;28;20476;-87
2021/05/31 02:51:44;;;;;;;3.65;3.05;;;14.40;99.90;;;;;;5088220;28;20035;-87
2021/05/31 02:54:12;;;;;;;4.47;2.92;;;14.10;99.90;;;;;;5066490;28;20378;-86
2021/05/31 02:56:37;;;;;;;3.40;2.90;;;14.00;1.00;;;;;;5085240;28;20020;-87
2021/05/31 02:59:03;;;;;;;3.45;2.78;;;14.00;99.90;;;;;;5070857;28;20507;-87
2021/05/31 03:01:29;;;;;;;4.35;3.13;;;13.90;1.00;;;;;;5074101;28;20048;-87
2021/05/31 03:03:54;;;;;;;3.22;2.88;;;13.90;99.90;;;;;;5092472;28;20481;-87
2021/05/31 03:06:20;;;;;;;3.58;2.72;;;13.90;1.00;;;;;;5092619;28;20110;-87
2021/05/31 03:08:46;;;;;;;3.00;2.70;;;13.80;1.00;;;;;;5090954;28;20020;-87
2021/05/31 03:11:11;;;;;;;2.83;2.45;;;14.00;1.00;;;;;;5088733;28;20059;-87
2021/05/31 03:13:37;;;;;;;4.38;3.17;;;14.00;1.00;;;;;;5090994;28;20024;-86
2021/05/31 03:16:03;;;;;;;3.20;2.88;;;13.90;1.00;;;;;;5091912;28;20099;-87
2021/05/31 03:18:28;;;;;;;4.15;2.40;;;13.80;1.00;;;;;;5092236;28;20024;-88
2021/05/31 03:20:54;;;;;;;2.75;2.50;;;13.70;1.00;;;;;;5090699;28;20127;-87
2021/05/31 03:23:19;;;;;;;3.38;2.65;;;13.70;1.00;;;;;;5073231;28;20055;-86
2021/05/31 03:25:45;;;;;;;4.22;2.78;;;13.80;1.00;;;;;;5073982;28;20082;-87
2021/05/31 03:28:11;;;;;;;4.70;2.90;;;13.80;1.00;;;;;;5091097;28;20551;-87
2021/05/31 03:30:36;;;;;;;3.92;2.95;;;13.90;99.90;;;;;;5074499;28;20067;-87
2021/05/31 03:33:02;;;;;;;5.00;2.78;;;13.80;99.90;;;;;;5088703;28;20040;-87
2021/05/31 03:35:28;;;;;;;3.78;3.00;;;13.90;99.90;;;;;;5081409;28;20024;-87
2021/05/31 03:37:54;;;;;;;3.10;2.47;;;14.00;99.90;;;;;;5071233;28;20122;-87
2021/05/31 03:40:21;;;;;;;3.10;2.80;;;14.00;99.90;;;;;;5090197;28;20044;-87
2021/05/31 03:42:52;;;;;;;5.32;2.88;;;14.00;99.90;;;;;;5091912;28;20020;-87
2021/05/31 03:45:18;;;;;;;4.00;3.10;;;13.80;1.00;;;;;;5090076;28;20110;-87
2021/05/31 03:47:44;;;;;;;4.28;3.03;;;13.90;1.00;;;;;;5090044;28;20469;-87
2021/05/31 03:50:11;;;;;;;4.32;2.90;;;13.70;1.00;;;;;;5072606;28;20039;-87
2021/05/31 03:52:36;;;;;;;5.10;3.10;;;13.80;1.00;;;;;;5071541;28;20055;-87
2021/05/31 03:55:05;;;;;;;3.38;3.05;;;14.10;1.00;;;;;;5090924;28;20047;-87
2021/05/31 03:57:32;;;;;;;4.80;2.90;;;13.70;1.00;;;;;;5073691;28;20020;-87
2021/05/31 03:59:57;;;;;;;3.70;2.78;;;13.60;1.00;;;;;;5089968;28;20107;-88
2021/05/31 04:02:23;;;;;;;3.00;2.70;;;13.40;1.00;;;;;;5089805;28;21000;-87
2021/05/31 04:04:52;;;;;;;4.03;2.80;;;13.40;1.00;;;;;;5073257;28;20024;-87
2021/05/31 04:12:34;;;;;;;4.50;3.03;;;13.40;1.00;;;;;;5089915;28;20035;-87
2021/05/31 04:15:00;;;;;;;5.03;3.28;;;13.40;1.00;;;;;;5072636;28;20028;-87
2021/05/31 04:17:25;;;;;;;4.15;3.13;;;13.90;1.00;;;;;;5089607;28;20024;-87
2021/05/31 04:19:51;;;;;;;5.97;3.00;;;13.40;1.00;;;;;;5090518;28;20092;-87
2021/05/31 04:22:16;;;;;;;4.50;2.90;;;13.60;1.00;;;;;;5089326;28;20115;-87
2021/05/31 04:24:42;;;;;;;3.03;2.65;;;13.60;1.00;;;;;;5091517;28;20693;-87
2021/05/31 04:27:08;;;;;;;3.13;2.60;;;13.70;1.00;;;;;;5089782;28;20036;-87
2021/05/31 04:29:33;;;;;;;4.88;3.35;;;13.90;1.00;;;;;;5088866;28;20024;-87
2021/05/31 04:31:59;;;;;;;3.33;2.60;;;13.90;1.00;;;;;;5089628;28;20048;-86
2021/05/31 04:34:25;;;;;;;3.03;2.50;;;14.00;1.00;;;;;;5089851;28;20032;-87
2021/05/31 04:36:50;;;;;;;3.30;2.67;;;14.00;1.00;;;;;;5072890;28;20024;-87
2021/05/31 04:39:16;;;;;;;6.72;2.63;;;14.00;1.00;;;;;;5090295;28;20035;-87
2021/05/31 04:41:42;;;;;;;5.05;2.80;;;13.90;1.00;;;;;;5071563;28;20462;-87
2021/05/31 04:44:07;;;;;;;3.20;2.90;;;13.80;1.00;;;;;;5072314;28;20155;-87
2021/05/31 04:46:33;;;;;;;4.35;2.78;;;13.80;1.00;;;;;;5087562;28;20518;-87
2021/05/31 04:49:04;;;;;;;3.58;3.08;;;13.90;1.00;;;;;;5090161;28;20074;-87
2021/05/31 04:51:30;;;;;;;5.38;2.95;;;13.90;1.00;;;;;;5072518;28;20042;-87
2021/05/31 04:53:58;;;;;;;10.32;3.17;;;14.50;1.00;;;;;;5089614;28;20111;-87
2021/05/31 04:56:27;;;;;;;3.90;2.90;;;14.10;1.00;;;;;;5089657;28;20052;-87
2021/05/31 04:58:53;;;;;;;3.20;2.50;;;14.10;1.00;;;;;;5071344;28;20507;-87
2021/05/31 05:01:19;;;;;;;5.18;2.70;;;14.20;99.90;;;;;;5089170;28;20056;-86
2021/05/31 05:03:44;;;;;;;5.13;3.30;;;14.20;1.00;;;;;;5073141;28;20093;-85
2021/05/31 05:06:10;;;;;;;5.40;2.88;;;14.20;99.90;;;;;;5088679;28;20028;-87
2021/05/31 05:08:36;;;;;;;5.18;2.90;;;14.30;99.90;;;;;;5090863;28;20024;-88
2021/05/31 05:11:02;;;;;;;9.55;3.55;;;14.40;99.90;;;;;;5093312;28;20090;-87
2021/05/31 05:13:27;;;;;;;2.90;2.60;;;14.80;99.90;;;;;;5093098;28;20046;-87
2021/05/31 05:15:53;;;;;;;3.75;3.00;;;14.50;99.90;;;;;;5076270;28;20362;-89
2021/05/31 05:18:19;;;;;;;2.95;2.65;;;14.60;99.90;;;;;;5091750;28;20032;-90
2021/05/31 05:20:45;;;;;;;4.78;2.85;;;14.70;99.90;;;;;;5093038;28;20064;-89
2021/05/31 05:23:11;;;;;;;3.30;2.80;;;14.80;99.90;;;;;;5093464;28;20032;-88
2021/05/31 05:25:37;;;;;;;3.47;2.67;;;14.90;99.90;;;;;;5092865;28;20382;-89
2021/05/31 05:28:03;;;;;;;3.75;2.63;;;15.20;99.90;;;;;;5093822;28;20035;-90
2021/05/31 05:30:29;;;;;;;5.65;3.00;;;14.90;99.90;;;;;;5092010;28;20024;-89
2021/05/31 05:33:01;;;;;;;6.05;3.28;;;15.00;99.90;;;;;;5089668;28;20138;-91
2021/05/31 05:35:35;;;;;;;3.13;2.80;;;15.10;99.90;;;;;;5092344;28;20053;-90
2021/05/31 05:45:59;;;;;;;3.25;2.95;;;15.40;99.90;;;;;;5093816;28;20020;-88
2021/05/31 05:48:28;;;;;;;3.33;3.03;;;15.40;99.90;;;;;;5083399;28;20028;-89
2021/05/31 05:51:05;;;;;;;5.50;3.00;;;15.50;99.90;;;;;;5087836;28;20028;-91
2021/05/31 05:53:37;;;;;;;6.97;3.20;;;15.60;99.90;;;;;;5093920;28;20032;-90
2021/05/31 05:56:05;;;;;;;6.82;3.22;;;15.60;99.90;;;;;;5091977;28;20057;-89
2021/05/31 05:58:30;;;;;;;6.03;3.00;;;15.60;99.90;;;;;;5095591;28;20016;-90
2021/05/31 06:00:58;;;;;;;11.40;3.70;;;15.70;99.90;;;;;;5095539;28;20519;-89
2021/05/31 06:03:24;;;;;;;4.75;3.55;;;15.80;99.90;;;;;;5094116;28;20020;-89
2021/05/31 06:05:50;;;;;;;7.88;3.63;;;15.90;99.90;;;;;;5092218;28;20110;-89
2021/05/31 06:08:17;;;;;;;6.10;3.60;;;15.90;99.90;;;;;;5090423;28;20038;-89
2021/05/31 06:10:43;;;;;;;7.75;3.60;;;16.00;99.90;;;;;;5074146;28;20038;-89
2021/05/31 06:13:09;;;;;;;10.52;3.35;;;16.10;99.90;;;;;;5094535;28;20024;-89
2021/05/31 06:15:35;;;;;;;6.93;3.33;;;16.20;99.90;;;;;;5093236;28;20055;-89
2021/05/31 06:18:01;;;;;;;6.80;3.20;;;16.30;99.90;;;;;;5092254;28;20082;-88
2021/05/31 06:20:26;;;;;;;6.80;3.20;;;16.40;99.90;;;;;;5090064;28;20365;-89
2021/05/31 06:22:52;;;;;;;6.68;3.08;;;16.50;99.90;;;;;;5091851;28;20069;-89
2021/05/31 06:25:20;;;;;;;8.48;3.28;;;16.60;99.90;;;;;;5092492;28;20141;-89
2021/05/31 06:27:46;;;;;;;4.22;3.53;;;16.70;99.90;;;;;;5076364;28;20357;-89
2021/05/31 06:30:12;;;;;;;7.38;3.30;;;16.80;99.90;;;;;;5091447;28;20050;-93
2021/05/31 06:32:37;;;;;;;4.78;3.03;;;16.90;99.90;;;;;;5093256;28;20044;-90
2021/05/31 06:35:03;;;;;;;11.90;3.75;;;17.00;99.90;;;;;;5075454;28;20058;-91
2021/05/31 06:37:31;;;;;;;5.22;2.83;;;17.10;99.90;;;;;;5092154;28;20387;-90
2021/05/31 06:39:58;;;;;;;5.30;2.78;;;17.10;99.90;;;;;;5076538;28;20020;-90
2021/05/31 06:42:25;;;;;;;11.13;3.83;;;17.20;99.90;;;;;;5074646;28;20086;-91
2021/05/31 06:44:50;;;;;;;4.38;2.83;;;17.20;99.90;;;;;;5091116;28;20047;-92
2021/05/31 06:47:16;;;;;;;5.53;3.00;;;17.30;99.90;;;;;;5091667;28;20036;-90
2021/05/31 06:49:44;;;;;;;3.95;2.58;;;17.40;99.90;;;;;;5095727;28;20387;-91
2021/05/31 06:52:09;;;;;;;5.72;2.80;;;17.50;99.90;;;;;;5095628;28;20036;-90
2021/05/31 06:54:35;;;;;;;5.25;2.90;;;17.70;99.90;;;;;;5091520;28;20029;-91
2021/05/31 06:57:01;;;;;;;5.88;2.78;;;17.80;99.90;;;;;;5091685;28;20058;-93
2021/05/31 06:59:26;;;;;;;6.50;2.83;;;17.90;99.90;;;;;;5092025;28;20039;-89
2021/05/31 07:01:52;;;;;;;6.68;3.15;;;17.90;99.90;;;;;;5089216;28;20100;-90
2021/05/31 07:04:18;;;;;;;5.93;3.00;;;17.90;99.90;;;;;;5092408;28;20079;-91
2021/05/31 07:06:44;;;;;;;5.20;2.97;;;17.90;99.90;;;;;;5093132;28;20012;-92
2021/05/31 07:09:10;;;;;;;9.00;2.95;;;18.10;99.90;;;;;;5091657;28;20028;-92
2021/05/31 07:11:40;;;;;;;4.15;2.50;;;18.20;99.90;;;;;;5089545;28;20028;-91
2021/05/31 07:14:06;;;;;;;5.35;3.30;;;18.20;99.90;;;;;;5090023;28;20445;-91
2021/05/31 07:16:32;;;;;;;2.95;2.40;;;18.30;99.90;;;;;;5091446;28;20107;-88
2021/05/31 07:18:58;;;;;;;3.05;2.75;;;18.40;99.90;;;;;;5074914;28;20522;-91
2021/05/31 07:21:24;;;;;;;6.63;3.00;;;18.40;99.90;;;;;;5073236;28;20032;-90
2021/05/31 07:23:50;;;;;;;4.88;2.53;;;18.60;99.90;;;;;;5091735;28;20086;-85
2021/05/31 07:26:15;;;;;;;6.05;3.05;;;18.50;99.90;;;;;;5071536;28;20043;-85
2021/05/31 07:28:41;;;;;;;3.30;2.67;;;18.60;99.90;;;;;;5089523;28;20048;-89
2021/05/31 07:31:07;;;;;;;6.22;2.78;;;18.60;99.90;;;;;;5072887;28;20028;-89
2021/05/31 07:33:32;;;;;;;5.05;3.00;;;18.60;99.90;;;;;;5091681;28;20051;-79
2021/05/31 07:36:01;;;;;;;3.70;2.72;;;18.70;99.90;;;;;;5090449;28;20058;-91
2021/05/31 07:38:27;;;;;;;3.97;2.80;;;18.90;99.90;;;;;;5092157;28;20090;-92
2021/05/31 07:40:54;;;;;;;4.90;2.92;;;18.90;99.90;;;;;;5091772;28;20088;-93
2021/05/31 07:43:20;;;;;;;3.80;3.13;;;19.00;99.90;;;;;;5090838;28;20027;-92
2021/05/31 07:45:46;;;;;;;5.78;3.10;;;19.00;99.90;;;;;;5092895;28;20028;-93
2021/05/31 07:48:11;;;;;;;5.57;3.20;;;19.10;99.90;;;;;;5091203;28;20020;-93
2021/05/31 07:50:37;;;;;;;7.28;2.92;;;19.20;99.90;;;;;;5090713;28;20092;-93
2021/05/31 07:53:03;;;;;;;3.65;2.53;;;19.30;99.90;;;;;;5092277;28;20058;-93
2021/05/31 07:55:28;;;;;;;5.90;2.92;;;19.30;99.90;;;;;;5097837;28;20043;-92
2021/05/31 07:57:54;;;;;;;3.63;2.75;;;19.40;99.90;;;;;;5076210;28;20028;-92
2021/05/31 08:00:22;;;;;;;3.30;2.75;;;19.50;99.90;;;;;;5091949;28;20085;-91
2021/05/31 08:02:50;;;;;;;3.72;2.67;;;19.60;99.90;;;;;;5089901;28;20032;-93
2021/05/31 08:05:17;;;;;;;3.25;2.60;;;19.60;99.90;;;;;;5088239;28;20024;-92
2021/05/31 08:07:44;;;;;;;4.40;2.92;;;19.70;99.90;;;;;;5088418;28;20058;-95
2021/05/31 08:10:10;;;;;;;3.50;2.70;;;19.90;99.90;;;;;;5092356;28;20035;-92
2021/05/31 08:12:35;;;;;;;4.05;3.00;;;19.90;99.90;;;;;;5090383;28;20028;-92
2021/05/31 08:15:04;;;;;;;3.78;2.30;;;19.90;99.90;;;;;;5091021;28;20028;-91
2021/05/31 08:17:29;;;;;;;4.10;3.15;;;20.00;99.90;;;;;;5090155;28;20111;-91
2021/05/31 08:19:55;;;;;;;6.22;2.97;;;20.00;99.90;;;;;;5074410;28;20055;-93
2021/05/31 08:22:20;;;;;;;3.47;2.60;;;20.10;99.90;;;;;;5074436;28;20040;-94
2021/05/31 08:24:46;;;;;;;7.75;2.92;;;20.10;99.90;;;;;;5092355;28;20111;-92
2021/05/31 08:27:12;;;;;;;5.07;2.80;;;20.20;99.90;;;;;;5093103;28;20024;-93
2021/05/31 08:29:37;;;;;;;5.03;2.92;;;20.30;99.90;;;;;;5093539;28;20035;-92
2021/05/31 08:32:03;;;;;;;4.30;2.92;;;20.40;99.90;;;;;;5090759;28;20102;-92
2021/05/31 08:34:29;;;;;;;3.38;2.50;;;20.40;99.90;;;;;;5073803;28;20559;-92
2021/05/31 08:36:55;;;;;;;3.65;2.72;;;20.40;99.90;;;;;;5092499;28;20119;-92
2021/05/31 08:39:21;;;;;;;6.10;2.95;;;20.50;99.90;;;;;;5089910;28;20372;-91
2021/05/31 08:41:46;;;;;;;5.88;2.80;;;20.60;99.90;;;;;;5073745;28;20039;-91
2021/05/31 08:44:12;;;;;;;4.00;2.85;;;20.70;99.90;;;;;;5068584;28;20039;-91
2021/05/31 08:46:38;;;;;;;3.65;2.83;;;20.80;99.90;;;;;;5093155;28;20108;-91
2021/05/31 08:49:08;;;;;;;6.07;2.75;;;20.90;99.90;;;;;;5094782;28;20059;-90
2021/05/31 08:51:34;;;;;;;5.93;2.92;;;20.90;99.90;;;;;;5095924;28;20408;-90
2021/05/31 08:54:01;;;;;;;3.97;2.50;;;20.80;99.90;;;;;;5094021;28;20089;-91
2021/05/31 08:56:26;;;;;;;4.93;2.90;;;21.10;99.90;;;;;;5094275;28;20027;-90
2021/05/31 08:58:52;;;;;;;5.78;2.92;;;21.00;99.90;;;;;;5076350;28;20476;-90
2021/05/31 09:01:20;;;;;;;4.47;2.90;;;21.20;99.90;;;;;;5079349;28;20028;-90
2021/05/31 09:03:46;;;;;;;5.80;2.60;;;21.30;99.90;;;;;;5078469;28;20035;-90
2021/05/31 09:06:15;;;;;;;3.10;2.80;;;21.30;99.90;;;;;;5076158;28;20032;-90
2021/05/31 09:08:50;;;;;;;5.50;2.60;;;21.50;99.90;;;;;;5093494;28;20103;-90
2021/05/31 09:11:19;;;;;;;5.32;2.92;;;21.60;99.90;;;;;;5092915;28;20051;-90
2021/05/31 09:13:45;;;;;;;3.20;2.83;;;21.70;99.90;;;;;;5093979;28;21705;-89
2021/05/31 09:16:19;;;;;;;3.97;2.80;;;21.60;99.90;;;;;;5093946;28;20032;-89
2021/05/31 09:18:54;;;;;;;3.60;2.88;;;21.80;99.90;;;;;;5094983;28;20050;-91
2021/05/31 09:21:29;;;;;;;5.15;3.03;;;21.90;99.90;;;;;;5075416;28;20036;-92
2021/05/31 09:23:59;;;;;;;4.70;2.78;;;21.90;99.90;;;;;;5076378;28;20035;-91
2021/05/31 09:26:27;;;;;;;6.00;2.88;;;22.00;99.90;;;;;;5095414;28;20016;-92
2021/05/31 09:28:57;;;;;;;7.18;3.05;;;21.90;99.90;;;;;;5096359;28;20475;-92
2021/05/31 09:31:24;;;;;;;3.08;2.78;;;22.20;99.90;;;;;;5076661;28;20029;-93
2021/05/31 09:34:12;;;;;;;4.30;2.80;;;22.30;99.90;;;;;;5091178;28;20040;-93
2021/05/31 09:36:52;;;;;;;8.25;3.33;;;22.40;99.90;;;;;;5093771;28;20039;-93
2021/05/31 09:39:21;;;;;;;3.13;2.80;;;22.00;99.90;;;;;;5093088;28;20462;-93
2021/05/31 09:41:46;;;;;;;4.40;2.97;;;22.10;99.90;;;;;;5093528;28;20040;-92
2021/05/31 09:44:13;;;;;;;4.65;2.92;;;22.40;99.90;;;;;;5094883;28;20032;-91
2021/05/31 09:46:43;;;;;;;3.78;2.72;;;22.40;99.90;;;;;;5092823;28;20599;-91
2021/05/31 09:49:14;;;;;;;5.22;3.17;;;22.60;99.90;;;;;;5093012;28;20415;-92
2021/05/31 09:51:59;;;;;;;5.55;3.00;;;22.60;99.90;;;;;;5093808;28;20032;-92
2021/05/31 09:54:37;;;;;;;4.72;2.95;;;22.70;99.90;;;;;;5094679;28;20024;-93
2021/05/31 09:57:31;;;;;;;5.63;2.90;;;22.60;99.90;;;;;;5092841;28;20036;-92
2021/05/31 10:00:11;;;;;;;3.35;2.60;;;22.90;99.90;;;;;;5097638;28;20422;-91
2021/05/31 10:05:30;;;;;;;3.17;2.88;;;23.00;99.90;;;;;;5093058;28;20409;-90
2021/05/31 10:08:40;;;;;;;3.75;3.20;;;23.00;99.90;;;;;;5092975;28;20024;-93
2021/05/31 10:10:51;;;;;;;4.78;2.70;;;23.00;99.90;;;;;;5093395;28;20024;-94
2021/05/31 10:13:18;;;;;;;3.28;2.83;;;23.00;99.90;;;;;;5075018;28;20377;-94
2021/05/31 10:15:44;;;;;;;4.43;2.30;;;23.10;99.90;;;;;;5094532;28;20016;-92
2021/05/31 10:18:13;;;;;;;3.70;2.17;;;23.10;99.90;;;;;;5075444;28;20036;-90
2021/05/31 10:20:40;;;;;;;2.35;2.08;;;23.10;99.90;;;;;;5073449;28;20388;-91
2021/05/31 10:23:10;;;;;;;2.42;2.22;;;22.90;99.90;;;;;;5075398;28;20136;-91
2021/05/31 10:25:40;;;;;;;4.05;2.10;;;23.10;99.90;;;;;;5092197;28;20556;-91
2021/05/31 10:28:16;;;;;;;2.67;2.33;;;23.10;99.90;;;;;;5093311;28;20480;-94
2021/05/31 10:30:44;;;;;;;2.70;2.42;;;23.00;99.90;;;;;;5080174;28;20028;-92
2021/05/31 10:33:14;;;;;;;3.50;2.40;;;23.10;99.90;;;;;;5097087;28;20040;-92
2021/05/31 10:35:39;;;;;;;6.28;2.42;;;23.40;99.90;;;;;;5073619;28;20395;-91
2021/05/31 10:38:11;;;;;;;3.33;2.30;;;23.60;99.90;;;;;;5074330;28;20044;-96
2021/05/31 10:40:42;;;;;;;3.42;2.33;;;23.60;99.90;;;;;;5092505;28;20028;-91
2021/05/31 10:43:10;;;;;;;4.07;2.13;;;23.40;99.90;;;;;;5092537;28;20024;-91
2021/05/31 10:45:36;;;;;;;5.45;2.53;;;23.60;99.90;;;;;;5091817;28;20031;-91
2021/05/31 10:48:11;;;;;;;3.42;2.47;;;23.40;99.90;;;;;;5091786;28;20036;-91
2021/05/31 10:50:41;;;;;;;3.95;2.72;;;23.70;99.90;;;;;;5096475;28;20016;-94
2021/05/31 10:53:30;;;;;;;2.95;2.50;;;23.60;99.90;;;;;;5091890;28;20035;-92
2021/05/31 10:56:05;;;;;;;3.70;2.53;;;23.30;99.90;;;;;;5091158;28;20028;-91
2021/05/31 10:58:35;;;;;;;2.95;2.60;;;23.70;99.90;;;;;;5076815;28;20032;-89
2021/05/31 11:01:02;;;;;;;3.00;2.25;;;23.70;99.90;;;;;;5092864;28;20496;-94
2021/05/31 11:03:29;;;;;;;3.03;2.40;;;23.70;99.90;;;;;;5074610;28;20484;-92
2021/05/31 11:05:55;;;;;;;4.35;2.50;;;23.80;99.90;;;;;;5090254;28;20380;-94
2021/05/31 11:08:48;;;;;;;2.83;2.53;;;23.70;99.90;;;;;;5092011;28;20024;-94
2021/05/31 11:11:23;;;;;;;2.75;2.53;;;24.00;99.90;;;;;;5072493;28;20036;-90
2021/05/31 11:13:50;;;;;;;7.60;2.60;;;23.70;99.90;;;;;;5073322;28;20496;-88
2021/05/31 11:16:16;;;;;;;3.63;2.63;;;23.80;99.90;;;;;;5090949;28;20488;-93
2021/05/31 11:18:44;;;;;;;3.22;2.60;;;23.90;99.90;;;;;;5076517;28;20039;-93
2021/05/31 11:21:11;;;;;;;3.08;2.78;;;24.00;99.90;;;;;;5091622;28;20051;-91
2021/05/31 11:23:41;;;;;;;2.85;2.47;;;24.40;99.90;;;;;;5092184;28;20039;-87
2021/05/31 11:26:07;;;;;;;3.95;2.80;;;24.70;99.90;;;;;;5090127;28;20039;-87
2021/05/31 11:28:33;;;;;;;4.88;2.60;;;24.30;99.90;;;;;;5090360;28;20031;-88
2021/05/31 11:30:58;;;;;;;4.13;2.40;;;24.20;99.90;;;;;;5092160;28;20099;-87
2021/05/31 11:33:24;;;;;;;4.30;2.30;;;24.50;99.90;;;;;;5090588;28;20123;-87
2021/05/31 11:35:50;;;;;;;2.80;2.58;;;24.40;99.90;;;;;;5089478;28;20114;-90
2021/05/31 11:38:17;;;;;;;3.58;2.50;;;24.50;99.90;;;;;;5072425;28;20137;-89
2021/05/31 11:40:43;;;;;;;5.45;2.70;;;24.80;99.90;;;;;;5090389;28;20508;-94
2021/05/31 11:43:13;;;;;;;6.00;2.30;;;24.90;99.90;;;;;;5072237;28;20024;-87
2021/05/31 11:45:40;;;;;;;3.83;2.13;;;25.10;99.90;;;;;;5091938;28;20031;-88
2021/05/31 11:48:07;;;;;;;2.65;2.38;;;25.20;99.90;;;;;;5073525;28;20472;-87
2021/05/31 11:50:35;;;;;;;3.45;2.80;;;25.60;99.90;;;;;;5072357;28;20043;-89
2021/05/31 11:53:03;;;;;;;2.22;2.03;;;25.70;99.90;;;;;;5065852;28;20039;-88
2021/05/31 11:55:30;;;;;;;2.65;1.90;;;25.50;99.90;;;;;;5089939;28;20054;-87
2021/05/31 11:57:56;;;;;;;2.67;2.25;;;26.00;99.90;;;;;;5073235;28;20085;-88
2021/05/31 12:00:34;;;;;;;3.88;2.28;;;26.90;99.90;;;;;;5089603;28;20423;-88
2021/05/31 12:03:00;;;;;;;2.92;2.38;;;28.00;99.90;;;;;;5089820;28;20571;-87
2021/05/31 12:05:37;;;;;;;2.40;2.20;;;30.00;99.90;;;;;;5089957;28;20102;-87
2021/05/31 12:08:08;;;;;;;3.40;2.45;;;31.30;99.90;;;;;;5089772;28;20032;-87
2021/05/31 12:10:34;;;;;;;2.40;2.20;;;31.90;99.90;;;;;;5071394;28;20020;-87
2021/05/31 12:12:59;;;;;;;2.20;2.05;;;33.30;99.90;;;;;;5091706;28;20373;-88
2021/05/31 12:15:25;;;;;;;2.03;1.92;;;34.00;99.90;;;;;;5090213;28;20020;-87
2021/05/31 12:17:53;;;;;;;2.33;2.10;;;34.00;99.90;;;;;;5088710;28;20503;-88
2021/05/31 12:20:23;;;;;;;6.15;2.42;;;34.10;99.90;;;;;;5089161;28;20077;-87
2021/05/31 12:22:49;;;;;;;3.45;2.42;;;33.90;99.90;;;;;;5089803;28;20039;-88
2021/05/31 12:25:16;;;;;;;2.58;2.38;;;34.40;99.90;;;;;;5090278;28;20032;-88
2021/05/31 12:27:42;;;;;;;3.63;2.50;;;35.00;99.90;;;;;;5090185;28;20024;-88
2021/05/31 12:30:12;;;;;;;3.38;2.03;;;33.80;99.90;;;;;;5089411;28;20498;-88
2021/05/31 12:32:38;;;;;;;2.13;2.03;;;33.60;99.90;;;;;;5089262;28;20523;-88
2021/05/31 12:35:06;;;;;;;2.53;2.30;;;33.70;99.90;;;;;;5089403;28;20055;-89
2021/05/31 12:37:34;;;;;;;2.58;2.17;;;32.20;99.90;;;;;;5088330;28;20037;-87
2021/05/31 12:40:07;;;;;;;3.47;2.05;;;32.30;99.90;;;;;;5090657;28;20020;-88
2021/05/31 12:42:33;;;;;;;3.05;2.67;;;33.00;99.90;;;;;;5091373;28;20043;-88
2021/05/31 12:45:11;;;;;;;2.33;2.08;;;32.40;99.90;;;;;;5089645;28;20024;-88
2021/05/31 12:47:42;;;;;;;2.97;2.20;;;32.50;99.90;;;;;;5088701;28;20020;-88
2021/05/31 12:50:35;;;;;;;3.45;2.30;;;33.30;99.90;;;;;;5089731;28;20020;-88
2021/05/31 12:53:11;;;;;;;3.55;2.30;;;33.30;99.90;;;;;;5072604;28;20451;-88
2021/05/31 12:55:39;;;;;;;2.88;2.40;;;32.50;99.90;;;;;;5089237;28;20404;-88
2021/05/31 12:58:11;;;;;;;3.55;2.55;;;32.20;99.90;;;;;;5090491;28;20373;-88
2021/05/31 13:00:37;;;;;;;2.88;2.08;;;33.00;99.90;;;;;;5089426;28;20383;-89
2021/05/31 13:03:03;;;;;;;4.93;2.13;;;32.70;99.90;;;;;;5088970;28;20032;-88
2021/05/31 13:05:34;;;;;;;2.50;2.30;;;32.50;99.90;;;;;;5089277;28;20381;-87
2021/05/31 13:08:06;;;;;;;2.63;2.08;;;32.40;99.90;;;;;;5069935;28;20038;-88
2021/05/31 13:10:33;;;;;;;2.55;2.35;;;32.70;99.90;;;;;;5089239;28;20024;-88